createdAt,value
2023-04-18T00:01:28.892Z,96552.19
2023-04-18T00:03:57.996Z,96556.16
2023-04-18T00:06:26.971Z,96552.56
2023-04-18T00:08:54.576Z,96544.81
2023-04-18T00:11:22.208Z,96542.03
2023-04-18T00:13:49.884Z,96542.84
2023-04-18T00:16:18.937Z,96522.56
2023-04-18T00:18:48.116Z,96526.53
2023-04-18T00:21:16.722Z,96539.47
2023-04-18T00:23:45.957Z,96537.88
2023-04-18T00:26:14.041Z,96531.50
2023-04-18T00:28:41.679Z,96535.09
2023-04-18T00:31:09.327Z,96538.63
2023-04-18T00:33:38.276Z,96516.53
2023-04-18T00:36:07.023Z,96543.53
2023-04-18T00:38:34.754Z,96546.16
2023-04-18T00:41:02.423Z,96519.91
2023-04-18T00:43:30.132Z,96515.72
2023-04-18T00:46:01.240Z,96524.03
2023-04-18T00:48:28.918Z,96530.78
2023-04-18T00:51:00.212Z,96514.66
2023-04-18T00:53:28.190Z,96522.38
2023-04-18T00:55:56.369Z,96523.28
2023-04-18T00:58:25.109Z,96524.41
2023-04-18T01:00:53.931Z,96528.28
2023-04-18T01:03:22.825Z,96524.88
2023-04-18T01:05:50.893Z,96518.09
2023-04-18T01:08:20.291Z,96527.13
2023-04-18T01:10:48.022Z,96514.75
2023-04-18T01:13:16.871Z,96491.03
2023-04-18T01:15:45.852Z,96487.06
2023-04-18T01:18:16.772Z,96524.47
2023-04-18T01:20:46.697Z,96519.47
2023-04-18T01:23:14.895Z,96510.09
2023-04-18T01:25:44.061Z,96518.88
2023-04-18T01:28:13.016Z,96519.28
2023-04-18T01:30:40.993Z,96515.31
2023-04-18T01:33:08.525Z,96484.69
2023-04-18T01:35:36.209Z,96506.16
2023-04-18T01:38:03.882Z,96505.53
2023-04-18T01:40:31.419Z,96479.13
2023-04-18T01:43:00.534Z,96498.44
2023-04-18T01:45:28.026Z,96497.25
2023-04-18T01:47:55.586Z,96512.44
2023-04-18T01:50:23.430Z,96510.59
2023-04-18T01:52:50.945Z,96500.06
2023-04-18T01:55:18.614Z,96497.00
2023-04-18T01:57:46.316Z,96503.47
2023-04-18T02:00:15.841Z,96502.34
2023-04-18T02:02:43.543Z,96493.09
2023-04-18T02:05:11.202Z,96505.91
2023-04-18T02:07:38.678Z,96502.53
2023-04-18T02:10:07.302Z,96493.59
2023-04-18T02:12:34.916Z,96483.38
2023-04-18T02:15:02.523Z,96497.63
2023-04-18T02:17:31.414Z,96490.63
2023-04-18T02:19:58.867Z,96493.28
2023-04-18T02:22:26.343Z,96488.06
2023-04-18T02:24:53.859Z,96495.97
2023-04-18T02:27:21.353Z,96481.53
2023-04-18T02:29:48.814Z,96490.16
2023-04-18T02:32:16.455Z,96475.13
2023-04-18T02:34:45.297Z,96487.44
2023-04-18T02:37:12.738Z,96477.38
2023-04-18T02:39:40.240Z,96483.84
2023-04-18T02:42:07.796Z,96468.66
2023-04-18T02:44:35.363Z,96472.44
2023-04-18T02:47:02.798Z,96496.63
2023-04-18T02:49:30.220Z,96486.88
2023-04-18T02:51:59.088Z,96482.63
2023-04-18T02:54:26.644Z,96487.78
2023-04-18T02:56:55.065Z,96487.53
2023-04-18T02:59:22.533Z,96484.28
2023-04-18T03:01:50.003Z,96486.56
2023-04-18T03:04:17.572Z,96476.94
2023-04-18T03:06:45.140Z,96493.47
2023-04-18T03:09:14.023Z,96439.63
2023-04-18T03:11:41.544Z,96486.13
2023-04-18T03:14:09.105Z,96486.03
2023-04-18T03:16:36.638Z,96472.22
2023-04-18T03:19:04.118Z,96446.88
2023-04-18T03:21:31.627Z,96468.78
2023-04-18T03:23:59.406Z,96463.25
2023-04-18T03:26:29.899Z,96472.81
2023-04-18T03:28:57.415Z,96475.31
2023-04-18T03:31:24.949Z,96482.81
2023-04-18T03:33:52.508Z,96443.03
2023-04-18T03:36:25.068Z,96476.44
2023-04-18T03:38:52.649Z,96477.28
2023-04-18T03:41:20.170Z,96474.09
2023-04-18T03:43:49.054Z,96480.75
2023-04-18T03:46:16.637Z,96472.28
2023-04-18T03:48:44.171Z,96468.78
2023-04-18T03:51:11.621Z,96465.31
2023-04-18T03:53:39.123Z,96448.47
2023-04-18T03:56:06.955Z,96477.72
2023-04-18T03:58:34.415Z,96465.94
2023-04-18T04:01:03.272Z,96451.59
2023-04-18T04:03:30.881Z,96478.59
2023-04-18T04:05:58.487Z,96482.84
2023-04-18T04:08:27.669Z,96471.88
2023-04-18T04:10:55.810Z,96460.00
2023-04-18T04:13:23.266Z,96442.47
2023-04-18T04:15:51.420Z,96479.66
2023-04-18T04:18:20.274Z,96476.47
2023-04-18T04:20:48.973Z,96480.00
2023-04-18T04:23:16.433Z,96483.03
2023-04-18T04:25:46.232Z,96485.31
2023-04-18T04:28:14.149Z,96469.72
2023-04-18T04:30:42.414Z,96484.84
2023-04-18T04:33:09.889Z,96493.44
2023-04-18T04:35:38.832Z,96481.00
2023-04-18T04:38:07.122Z,96488.53
2023-04-18T04:40:34.652Z,96486.88
2023-04-18T04:43:02.218Z,96499.88
2023-04-18T04:45:29.756Z,96493.09
2023-04-18T04:47:57.333Z,96434.88
2023-04-18T04:50:24.880Z,96461.88
2023-04-18T04:52:53.683Z,96499.28
2023-04-18T04:55:21.241Z,96493.56
2023-04-18T04:57:48.679Z,96491.13
2023-04-18T05:00:20.655Z,96509.47
2023-04-18T05:02:48.315Z,96506.00
2023-04-18T05:05:16.179Z,96498.03
2023-04-18T05:07:43.622Z,96507.94
2023-04-18T05:10:12.704Z,96491.41
2023-04-18T05:12:40.129Z,96509.59
2023-04-18T05:15:08.283Z,96511.56
2023-04-18T05:17:35.769Z,96519.94
2023-04-18T05:20:04.065Z,96497.19
2023-04-18T05:22:31.685Z,96513.16
2023-04-18T05:24:59.194Z,96511.75
2023-04-18T05:27:28.425Z,96506.13
2023-04-18T05:29:56.070Z,96517.63
2023-04-18T05:32:23.581Z,96527.72
2023-04-18T05:34:51.090Z,96525.13
2023-04-18T05:37:18.536Z,96516.94
2023-04-18T05:39:46.082Z,96520.38
2023-04-18T05:42:13.486Z,96525.78
2023-04-18T05:44:42.276Z,96522.88
2023-04-18T05:47:09.700Z,96529.41
2023-04-18T05:49:37.131Z,96535.16
2023-04-18T05:52:04.754Z,96532.97
2023-04-18T05:54:32.226Z,96540.22
2023-04-18T05:56:59.659Z,96539.84
2023-04-18T05:59:27.657Z,96529.47
2023-04-18T06:01:57.117Z,96536.75
2023-04-18T06:04:24.758Z,96534.72
2023-04-18T06:06:52.360Z,96541.13
2023-04-18T06:09:19.918Z,96540.63
2023-04-18T06:11:47.570Z,96543.69
2023-04-18T06:14:15.347Z,96540.75
2023-04-18T06:16:43.237Z,96547.50
2023-04-18T06:19:12.210Z,96546.03
2023-04-18T06:21:41.899Z,96541.81
2023-04-18T06:24:09.452Z,96539.31
2023-04-18T06:26:36.884Z,96540.84
2023-04-18T06:29:04.351Z,96553.44
2023-04-18T06:31:31.803Z,96543.22
2023-04-18T06:33:59.257Z,96538.16
2023-04-18T06:36:28.341Z,96556.25
2023-04-18T06:38:55.766Z,96550.53
2023-04-18T06:41:23.367Z,96547.38
2023-04-18T06:44:02.803Z,96552.19
2023-04-18T06:46:31.509Z,96551.59
2023-04-18T06:48:59.127Z,96543.88
2023-04-18T06:51:28.823Z,96541.47
2023-04-18T06:53:56.257Z,96558.16
2023-04-18T06:56:23.820Z,96555.59
2023-04-18T06:58:52.739Z,96552.41
2023-04-18T07:01:20.693Z,96536.66
2023-04-18T07:03:48.256Z,96549.75
2023-04-18T07:06:16.222Z,96547.31
2023-04-18T07:08:44.999Z,96550.84
2023-04-18T07:11:13.119Z,96551.19
2023-04-18T07:13:40.534Z,96538.81
2023-04-18T07:16:10.186Z,96548.28
2023-04-18T07:18:38.529Z,96545.06
2023-04-18T07:21:07.978Z,96540.88
2023-04-18T07:23:35.558Z,96539.66
2023-04-18T07:26:05.696Z,96545.59
2023-04-18T07:28:33.933Z,96549.91
2023-04-18T07:31:02.917Z,96549.09
2023-04-18T07:33:31.593Z,96544.94
2023-04-18T07:35:59.211Z,96534.78
2023-04-18T07:38:27.793Z,96521.56
2023-04-18T07:40:57.693Z,96536.22
2023-04-18T07:43:26.809Z,96549.81
2023-04-18T07:45:54.412Z,96538.78
2023-04-18T07:48:22.683Z,96548.94
2023-04-18T07:50:50.385Z,96553.53
2023-04-18T07:53:18.216Z,96551.00
2023-04-18T07:55:45.874Z,96550.16
2023-04-18T07:58:13.628Z,96538.53
2023-04-18T08:00:44.585Z,96550.44
2023-04-18T08:03:13.433Z,96548.53
2023-04-18T08:05:42.358Z,96551.25
2023-04-18T08:08:11.685Z,96547.41
2023-04-18T08:10:39.233Z,96545.31
2023-04-18T08:13:07.974Z,96554.47
2023-04-18T08:15:35.709Z,96567.41
2023-04-18T08:18:04.599Z,96555.88
2023-04-18T08:20:32.070Z,96554.22
2023-04-18T08:23:06.220Z,96552.84
2023-04-18T08:25:36.817Z,96559.56
2023-04-18T08:28:04.661Z,96552.44
2023-04-18T08:30:32.308Z,96553.34
2023-04-18T08:33:00.069Z,96556.13
2023-04-18T08:35:28.960Z,96558.81
2023-04-18T08:37:56.343Z,96566.81
2023-04-18T08:40:24.095Z,96557.28
2023-04-18T08:42:53.996Z,96549.44
2023-04-18T08:45:21.498Z,96566.88
2023-04-18T08:47:48.989Z,96560.00
2023-04-18T08:50:17.138Z,96568.38
2023-04-18T08:52:48.645Z,96561.03
2023-04-18T08:55:16.814Z,96570.28
2023-04-18T08:57:45.540Z,96557.72
2023-04-18T09:00:14.357Z,96569.50
2023-04-18T09:02:43.487Z,96569.13
2023-04-18T09:05:13.021Z,96573.56
2023-04-18T09:07:40.919Z,96592.25
2023-04-18T09:10:12.317Z,96571.88
2023-04-18T09:12:49.842Z,96585.16
2023-04-18T09:15:20.114Z,96575.63
2023-04-18T09:17:50.696Z,96579.81
2023-04-18T09:20:34.328Z,96572.81
2023-04-18T09:23:03.653Z,96565.25
2023-04-18T09:25:35.907Z,96561.75
2023-04-18T09:28:05.501Z,96577.69
2023-04-18T09:30:36.656Z,96575.59
2023-04-18T09:33:05.375Z,96577.78
2023-04-18T09:35:32.866Z,96588.81
2023-04-18T09:38:01.349Z,96568.25
2023-04-18T09:40:29.100Z,96589.03
2023-04-18T09:42:57.948Z,96588.00
2023-04-18T09:45:26.627Z,96587.66
2023-04-18T09:47:55.605Z,96584.84
2023-04-18T09:50:23.174Z,96580.94
2023-04-18T09:52:50.707Z,96579.56
2023-04-18T09:55:19.195Z,96592.34
2023-04-18T09:57:48.500Z,96601.06
2023-04-18T10:00:23.968Z,96596.09
2023-04-18T10:02:55.711Z,96595.66
2023-04-18T10:05:27.190Z,96595.16
2023-04-18T10:07:55.732Z,96585.94
2023-04-18T10:10:24.228Z,96587.59
2023-04-18T10:12:54.117Z,96582.41
2023-04-18T10:15:26.254Z,96573.03
2023-04-18T10:20:28.620Z,96561.72
2023-04-18T10:22:57.712Z,96569.47
2023-04-18T10:25:49.134Z,96585.72
2023-04-18T10:28:16.772Z,96572.44
2023-04-18T10:30:54.234Z,96566.47
2023-04-18T10:33:31.764Z,96572.19
2023-04-18T10:36:02.249Z,96555.19
2023-04-18T10:38:29.844Z,96546.63
2023-04-18T10:41:17.698Z,96566.78
2023-04-18T10:44:25.769Z,96564.19
2023-04-18T10:47:22.893Z,96563.97
2023-04-18T10:50:01.491Z,96564.41
2023-04-18T10:52:30.222Z,96556.03
2023-04-18T10:55:11.198Z,96551.72
2023-04-18T10:57:39.962Z,96553.03
2023-04-18T11:00:11.113Z,96533.38
2023-04-18T11:02:41.147Z,96546.22
2023-04-18T11:05:09.775Z,96558.28
2023-04-18T11:07:38.507Z,96550.97
2023-04-18T11:10:09.064Z,96530.75
2023-04-18T11:12:39.221Z,96522.94
2023-04-18T11:15:11.752Z,96551.44
2023-04-18T11:17:41.228Z,96521.50
2023-04-18T11:20:11.407Z,96544.19
2023-04-18T11:22:46.698Z,96543.13
2023-04-18T11:25:14.701Z,96504.66
2023-04-18T11:27:44.285Z,96547.59
2023-04-18T11:30:13.073Z,96494.91
2023-04-18T11:32:42.701Z,96537.44
2023-04-18T11:35:11.931Z,96532.28
2023-04-18T11:37:42.281Z,96532.69
2023-04-18T11:40:13.056Z,96541.94
2023-04-18T11:42:41.770Z,96539.22
2023-04-18T11:45:13.504Z,96524.84
2023-04-18T11:47:43.917Z,96523.78
2023-04-18T11:50:13.683Z,96539.69
2023-04-18T11:52:42.927Z,96523.16
2023-04-18T11:55:17.753Z,96543.13
2023-04-18T11:57:52.340Z,96544.06
2023-04-18T12:00:22.148Z,96538.78
2023-04-18T12:02:52.350Z,96539.53
2023-04-18T12:05:27.612Z,96532.16
2023-04-18T12:07:55.806Z,96548.25
2023-04-18T12:10:29.425Z,96558.44
2023-04-18T12:12:59.526Z,96514.16
2023-04-18T12:15:29.118Z,96545.50
2023-04-18T12:18:03.113Z,96552.78
2023-04-18T12:20:36.477Z,96549.22
2023-04-18T12:23:04.740Z,96543.84
2023-04-18T12:25:32.655Z,96552.94
2023-04-18T12:28:01.825Z,96550.63
2023-04-18T12:30:37.453Z,96552.25
2023-04-18T12:33:06.764Z,96560.81
2023-04-18T12:35:34.483Z,96540.78
2023-04-18T12:38:03.738Z,96550.34
2023-04-18T12:40:31.551Z,96541.09
2023-04-18T12:43:00.542Z,96565.03
2023-04-18T12:45:29.292Z,96543.75
2023-04-18T12:47:56.976Z,96565.97
2023-04-18T12:50:27.461Z,96556.34
2023-04-18T12:52:56.728Z,96563.06
2023-04-18T12:55:25.142Z,96483.59
2023-04-18T12:57:54.772Z,96513.59
2023-04-18T13:00:24.412Z,96538.44
2023-04-18T13:02:53.329Z,96557.66
2023-04-18T13:05:32.503Z,96479.19
2023-04-18T13:08:15.443Z,96555.91
2023-04-18T13:10:44.240Z,96551.03
2023-04-18T13:13:11.665Z,96543.28
2023-04-18T13:15:39.590Z,96554.81
2023-04-18T13:18:07.279Z,96553.88
2023-04-18T13:20:35.716Z,96547.56
2023-04-18T13:23:04.670Z,96563.22
2023-04-18T13:25:32.377Z,96552.41
2023-04-18T13:28:00.709Z,96548.47
2023-04-18T13:30:28.704Z,96546.28
2023-04-18T13:32:56.607Z,96547.50
2023-04-18T13:35:24.072Z,96545.97
2023-04-18T13:37:51.480Z,96552.09
2023-04-18T13:40:20.826Z,96542.66
2023-04-18T13:42:48.275Z,96561.66
2023-04-18T13:45:15.768Z,96541.94
2023-04-18T13:47:43.323Z,96546.66
2023-04-18T13:50:11.304Z,96546.59
2023-04-18T13:52:38.726Z,96546.88
2023-04-18T13:55:07.485Z,96543.00
2023-04-18T13:57:37.213Z,96541.66
2023-04-18T14:00:09.049Z,96545.31
2023-04-18T14:02:36.680Z,96537.22
2023-04-18T14:05:04.562Z,96543.66
2023-04-18T14:07:32.085Z,96520.25
2023-04-18T14:09:59.509Z,96539.41
2023-04-18T14:12:27.143Z,96533.34
2023-04-18T14:14:55.893Z,96540.91
2023-04-18T14:17:23.368Z,96540.91
2023-04-18T14:19:51.321Z,96531.72
2023-04-18T14:22:18.745Z,96541.59
2023-04-18T14:24:46.173Z,96544.63
2023-04-18T14:27:13.898Z,96530.75
2023-04-18T14:29:41.566Z,96530.06
2023-04-18T14:32:10.469Z,96536.44
2023-04-18T14:34:38.833Z,96526.59
2023-04-18T14:37:06.409Z,96531.50
2023-04-18T14:39:33.858Z,96527.66
2023-04-18T14:42:01.333Z,96518.94
2023-04-18T14:44:31.808Z,96529.94
2023-04-18T14:47:02.559Z,96528.28
2023-04-18T14:49:31.496Z,96531.78
2023-04-18T14:51:59.115Z,96522.75
2023-04-18T14:54:26.623Z,96520.41
2023-04-18T14:56:57.481Z,96536.69
2023-04-18T14:59:27.770Z,96515.88
2023-04-18T15:01:55.271Z,96531.75
2023-04-18T15:04:23.216Z,96532.13
2023-04-18T15:06:52.138Z,96530.19
2023-04-18T15:09:19.570Z,96525.84
2023-04-18T15:11:47.003Z,96521.94
2023-04-18T15:14:14.571Z,96522.34
2023-04-18T15:16:42.202Z,96512.31
2023-04-18T15:19:09.661Z,96523.72
2023-04-18T15:21:37.126Z,96524.34
2023-04-18T15:24:06.414Z,96514.09
2023-04-18T15:26:33.890Z,96525.38
2023-04-18T15:29:03.525Z,96516.97
2023-04-18T15:31:31.489Z,96527.59
2023-04-18T15:33:59.021Z,96521.75
2023-04-18T15:36:27.577Z,96517.22
2023-04-18T15:38:55.063Z,96516.56
2023-04-18T15:41:23.856Z,96501.31
2023-04-18T15:43:53.292Z,96513.06
2023-04-18T15:46:20.782Z,96510.72
2023-04-18T15:48:48.268Z,96502.75
2023-04-18T15:51:15.690Z,96519.13
2023-04-18T15:53:43.120Z,96513.44
2023-04-18T15:56:10.871Z,96514.38
2023-04-18T15:58:39.640Z,96521.81
2023-04-18T16:01:07.588Z,96514.03
2023-04-18T16:03:35.971Z,96521.47
2023-04-18T16:06:04.421Z,96519.47
2023-04-18T16:08:33.295Z,96511.97
2023-04-18T16:11:00.954Z,96511.13
2023-04-18T16:13:28.349Z,96515.25
2023-04-18T16:15:57.205Z,96519.69
2023-04-18T16:18:24.615Z,96516.59
2023-04-18T16:20:52.057Z,96520.13
2023-04-18T16:23:20.358Z,96505.78
2023-04-18T16:25:47.799Z,96513.63
2023-04-18T16:28:15.349Z,96532.94
2023-04-18T16:30:43.693Z,96527.78
2023-04-18T16:33:12.584Z,96526.59
2023-04-18T16:35:40.243Z,96522.47
2023-04-18T16:38:07.746Z,96525.72
2023-04-18T16:40:35.300Z,96536.03
2023-04-18T16:43:02.884Z,96526.75
2023-04-18T16:45:30.303Z,96528.53
2023-04-18T16:47:57.951Z,96531.44
2023-04-18T16:50:27.064Z,96520.75
2023-04-18T16:52:54.513Z,96517.97
2023-04-18T16:55:22.179Z,96527.63
2023-04-18T16:57:49.601Z,96504.88
2023-04-18T17:00:17.452Z,96515.97
2023-04-18T17:02:45.170Z,96525.81
2023-04-18T17:05:12.838Z,96510.22
2023-04-18T17:07:41.616Z,96513.34
2023-04-18T17:10:10.460Z,96513.53
2023-04-18T17:12:37.916Z,96515.06
2023-04-18T17:15:06.884Z,96515.69
2023-04-18T17:17:35.240Z,96528.69
2023-04-18T17:20:05.962Z,96522.34
2023-04-18T17:22:33.426Z,96529.88
2023-04-18T17:25:03.006Z,96524.25
2023-04-18T17:27:30.666Z,96515.72
2023-04-18T17:29:58.138Z,96537.09
2023-04-18T17:32:25.621Z,96533.91
2023-04-18T17:34:53.639Z,96538.84
2023-04-18T17:37:22.202Z,96539.22
2023-04-18T17:39:49.743Z,96545.84
2023-04-18T17:42:20.970Z,96532.88
2023-04-18T17:44:48.426Z,96520.44
2023-04-18T17:47:16.040Z,96540.38
2023-04-18T17:49:43.461Z,96541.56
2023-04-18T17:52:10.898Z,96535.94
2023-04-18T17:54:38.394Z,96553.16
2023-04-18T17:57:06.180Z,96551.75
2023-04-18T17:59:37.568Z,96526.72
2023-04-18T18:02:05.354Z,96540.50
2023-04-18T18:04:33.096Z,96544.88
2023-04-18T18:07:00.611Z,96543.50
2023-04-18T18:09:28.051Z,96550.53
2023-04-18T18:11:56.095Z,96553.16
2023-04-18T18:14:23.788Z,96545.00
2023-04-18T18:16:52.641Z,96538.56
2023-04-18T18:19:20.930Z,96546.28
2023-04-18T18:21:48.516Z,96539.38
2023-04-18T18:24:16.277Z,96557.94
2023-04-18T18:26:43.900Z,96500.53
2023-04-18T18:29:11.529Z,96542.13
2023-04-18T18:31:40.060Z,96550.09
2023-04-18T18:34:09.075Z,96548.97
2023-04-18T18:36:36.574Z,96553.16
2023-04-18T18:39:04.449Z,96551.50
2023-04-18T18:41:32.192Z,96558.91
2023-04-18T18:43:59.885Z,96553.25
2023-04-18T18:46:27.654Z,96557.69
2023-04-18T18:48:55.375Z,96571.72
2023-04-18T18:51:24.876Z,96546.19
2023-04-18T18:53:52.463Z,96563.59
2023-04-18T18:56:20.060Z,96564.41
2023-04-18T18:58:47.964Z,96517.47
2023-04-18T19:01:15.784Z,96579.13
2023-04-18T19:03:43.530Z,96568.25
2023-04-18T19:06:11.216Z,96569.28
2023-04-18T19:08:40.209Z,96566.81
2023-04-18T19:11:07.971Z,96582.00
2023-04-18T19:13:35.562Z,96572.69
2023-04-18T19:16:03.229Z,96584.38
2023-04-18T19:18:30.891Z,96592.09
2023-04-18T19:20:58.484Z,96601.94
2023-04-18T19:23:28.256Z,96585.84
2023-04-18T19:25:57.288Z,96599.31
2023-04-18T19:28:25.772Z,96609.28
2023-04-18T19:30:54.012Z,96598.31
2023-04-18T19:33:24.160Z,96601.13
2023-04-18T19:35:51.930Z,96603.13
2023-04-18T19:38:19.479Z,96615.00
2023-04-18T19:40:47.297Z,96611.00
2023-04-18T19:43:16.287Z,96614.28
2023-04-18T19:45:43.918Z,96623.31
2023-04-18T19:48:11.795Z,96593.31
2023-04-18T19:50:40.259Z,96622.41
2023-04-18T19:53:07.898Z,96622.06
2023-04-18T19:55:35.853Z,96630.41
2023-04-18T19:58:06.124Z,96593.72
2023-04-18T20:00:35.123Z,96587.50
2023-04-18T20:03:02.926Z,96615.56
2023-04-18T20:05:31.006Z,96614.19
2023-04-18T20:07:58.743Z,96619.75
2023-04-18T20:10:26.494Z,96606.56
2023-04-18T20:12:54.124Z,96614.00
2023-04-18T20:15:22.506Z,96612.41
2023-04-18T20:17:51.426Z,96615.03
2023-04-18T20:20:19.186Z,96624.81
2023-04-18T20:22:47.446Z,96618.03
2023-04-18T20:25:17.957Z,96608.56
2023-04-18T20:27:48.130Z,96593.94
2023-04-18T20:30:16.489Z,96598.25
2023-04-18T20:32:47.037Z,96573.59
2023-04-18T20:35:16.216Z,96613.03
2023-04-18T20:37:44.625Z,96621.66
2023-04-18T20:40:12.712Z,96629.06
2023-04-18T20:42:40.367Z,96577.41
2023-04-18T20:45:11.184Z,96566.31
2023-04-18T20:47:41.236Z,96614.72
2023-04-18T20:50:10.127Z,96617.19
2023-04-18T20:52:42.537Z,96594.38
2023-04-18T20:55:10.867Z,96634.19
2023-04-18T20:57:38.636Z,96629.50
2023-04-18T21:00:08.351Z,96589.03
2023-04-18T21:02:35.901Z,96612.53
2023-04-18T21:05:03.568Z,96634.97
2023-04-18T21:07:32.043Z,96626.88
2023-04-18T21:10:01.032Z,96618.94
2023-04-18T21:12:28.685Z,96597.38
2023-04-18T21:14:56.259Z,96596.06
2023-04-18T21:17:25.345Z,96636.09
2023-04-18T21:19:53.089Z,96626.25
2023-04-18T21:22:20.599Z,96603.47
2023-04-18T21:24:48.080Z,96629.00
2023-04-18T21:27:16.932Z,96639.97
2023-04-18T21:29:44.360Z,96632.16
2023-04-18T21:32:11.790Z,96631.94
2023-04-18T21:34:39.213Z,96638.72
2023-04-18T21:37:06.630Z,96631.50
2023-04-18T21:39:34.069Z,96639.09
2023-04-18T21:42:01.729Z,96638.66
2023-04-18T21:44:31.028Z,96633.44
2023-04-18T21:46:58.455Z,96642.59
2023-04-18T21:49:26.025Z,96639.78
2023-04-18T21:51:54.695Z,96635.81
2023-04-18T21:54:22.136Z,96643.97
2023-04-18T21:56:49.561Z,96643.41
2023-04-18T21:59:16.993Z,96633.78
2023-04-18T22:01:45.769Z,96635.63
2023-04-18T22:04:14.420Z,96639.00
2023-04-18T22:06:42.552Z,96641.81
2023-04-18T22:09:11.697Z,96620.75
2023-04-18T22:11:39.249Z,96622.34
2023-04-18T22:14:06.762Z,96634.47
2023-04-18T22:16:34.422Z,96629.47
2023-04-18T22:19:03.917Z,96630.34
2023-04-18T22:21:31.552Z,96640.81
2023-04-18T22:23:59.168Z,96638.84
2023-04-18T22:26:26.633Z,96636.06
2023-04-18T22:28:54.096Z,96627.53
2023-04-18T22:31:21.606Z,96640.31
2023-04-18T22:33:49.077Z,96627.88
2023-04-18T22:36:17.923Z,96617.00
2023-04-18T22:38:45.414Z,96637.06
2023-04-18T22:41:12.935Z,96617.81
2023-04-18T22:43:40.352Z,96621.44
2023-04-18T22:46:07.822Z,96613.63
2023-04-18T22:48:35.480Z,96619.59
2023-04-18T22:51:03.257Z,96628.56
2023-04-18T22:53:32.023Z,96618.03
2023-04-18T22:55:59.452Z,96629.56
2023-04-18T22:58:26.940Z,96622.22
2023-04-18T23:00:54.402Z,96619.75
2023-04-18T23:03:22.126Z,96629.81
2023-04-18T23:05:49.753Z,96637.38
2023-04-18T23:08:18.614Z,96607.59
2023-04-18T23:10:47.533Z,96636.94
2023-04-18T23:13:14.996Z,96631.59
2023-04-18T23:15:42.568Z,96620.75
2023-04-18T23:18:10.076Z,96635.13
2023-04-18T23:20:37.805Z,96639.41
2023-04-18T23:23:05.625Z,96637.03
2023-04-18T23:25:34.122Z,96633.75
2023-04-18T23:28:02.953Z,96633.53
2023-04-18T23:30:30.603Z,96635.78
2023-04-18T23:32:58.120Z,96649.47
2023-04-18T23:35:25.596Z,96644.69
2023-04-18T23:37:53.039Z,96629.88
2023-04-18T23:40:21.101Z,96618.13
2023-04-18T23:42:48.586Z,96641.53
2023-04-18T23:45:17.662Z,96635.06
2023-04-18T23:47:45.177Z,96631.69
2023-04-18T23:50:13.189Z,96612.09
2023-04-18T23:52:40.794Z,96635.31
2023-04-18T23:55:09.055Z,96630.31
2023-04-18T23:57:36.553Z,96623.41
